sensor_id;sensor_type;location;lat;lon;timestamp;temperature;humidity
11489;DHT22;5801;50.804;12.638;2023-06-22T10:03:42;33.10;99.90
11489;DHT22;5801;50.804;12.638;2023-06-22T10:06:07;33.40;98.90
11489;DHT22;5801;50.804;12.638;2023-06-22T10:08:34;31.70;98.50
11489;DHT22;5801;50.804;12.638;2023-06-22T10:11:00;32.70;99.90
11489;DHT22;5801;50.804;12.638;2023-06-22T10:13:25;32.70;99.90
11489;DHT22;5801;50.804;12.638;2023-06-22T10:28:06;32.20;99.90
11489;DHT22;5801;50.804;12.638;2023-06-22T10:30:32;34.80;93.80
11489;DHT22;5801;50.804;12.638;2023-06-22T10:32:58;35.10;94.00
11489;DHT22;5801;50.804;12.638;2023-06-22T10:35:23;34.60;95.00
11489;DHT22;5801;50.804;12.638;2023-06-22T10:42:44;33.80;96.60
11489;DHT22;5801;50.804;12.638;2023-06-22T10:45:09;35.40;93.60
11489;DHT22;5801;50.804;12.638;2023-06-22T10:50:02;35.10;93.40
11489;DHT22;5801;50.804;12.638;2023-06-22T10:52:28;33.70;96.90
11489;DHT22;5801;50.804;12.638;2023-06-22T10:54:53;33.90;95.80
11489;DHT22;5801;50.804;12.638;2023-06-22T10:57:19;35.70;92.40
11489;DHT22;5801;50.804;12.638;2023-06-22T10:59:44;35.30;92.90
11489;DHT22;5801;50.804;12.638;2023-06-22T11:02:10;35.50;91.70
11489;DHT22;5801;50.804;12.638;2023-06-22T11:04:35;35.30;92.70
11489;DHT22;5801;50.804;12.638;2023-06-22T11:33:52;35.60;92.20
11489;DHT22;5801;50.804;12.638;2023-06-22T11:36:17;32.30;95.40
11489;DHT22;5801;50.804;12.638;2023-06-22T11:38:43;32.10;96.30
11489;DHT22;5801;50.804;12.638;2023-06-22T11:41:09;31.80;96.10
11489;DHT22;5801;50.804;12.638;2023-06-22T11:43:36;31.60;97.50
11489;DHT22;5801;50.804;12.638;2023-06-22T11:46:03;31.90;97.10
11489;DHT22;5801;50.804;12.638;2023-06-22T11:48:29;32.00;96.30
11489;DHT22;5801;50.804;12.638;2023-06-22T11:50:54;31.20;99.90
11489;DHT22;5801;50.804;12.638;2023-06-22T11:53:26;30.90;99.90
11489;DHT22;5801;50.804;12.638;2023-06-22T12:00:45;30.50;99.90
11489;DHT22;5801;50.804;12.638;2023-06-22T12:03:11;29.60;99.90
11489;DHT22;5801;50.804;12.638;2023-06-22T12:05:37;29.30;99.90
11489;DHT22;5801;50.804;12.638;2023-06-22T12:08:03;29.50;99.90
11489;DHT22;5801;50.804;12.638;2023-06-22T12:10:29;29.80;99.90
11489;DHT22;5801;50.804;12.638;2023-06-22T12:12:54;29.80;99.90
11489;DHT22;5801;50.804;12.638;2023-06-22T12:17:46;30.10;90.80
11489;DHT22;5801;50.804;12.638;2023-06-22T12:20:13;30.40;99.90
11489;DHT22;5801;50.804;12.638;2023-06-22T12:22:39;30.40;99.90
11489;DHT22;5801;50.804;12.638;2023-06-22T12:25:05;30.10;99.90
11489;DHT22;5801;50.804;12.638;2023-06-22T12:27:30;29.90;99.90
11489;DHT22;5801;50.804;12.638;2023-06-22T12:29:56;29.80;99.90
11489;DHT22;5801;50.804;12.638;2023-06-22T12:32:22;29.90;99.90
11489;DHT22;5801;50.804;12.638;2023-06-22T12:34:47;29.70;99.90
11489;DHT22;5801;50.804;12.638;2023-06-22T12:37:13;29.50;99.90
11489;DHT22;5801;50.804;12.638;2023-06-22T12:39:40;29.50;99.90
11489;DHT22;5801;50.804;12.638;2023-06-22T12:42:06;29.80;99.90
11489;DHT22;5801;50.804;12.638;2023-06-22T12:44:34;30.00;99.90
11489;DHT22;5801;50.804;12.638;2023-06-22T12:46:59;29.80;99.90
11489;DHT22;5801;50.804;12.638;2023-06-22T12:49:25;29.90;99.90
11489;DHT22;5801;50.804;12.638;2023-06-22T12:51:50;28.90;99.90
11489;DHT22;5801;50.804;12.638;2023-06-22T12:54:16;30.30;99.90
11489;DHT22;5801;50.804;12.638;2023-06-22T12:56:41;30.40;99.90
11489;DHT22;5801;50.804;12.638;2023-06-22T12:59:09;30.50;99.90
11489;DHT22;5801;50.804;12.638;2023-06-22T13:01:34;30.50;99.90
11489;DHT22;5801;50.804;12.638;2023-06-22T13:04:00;30.60;99.80
11489;DHT22;5801;50.804;12.638;2023-06-22T13:06:25;30.70;99.90
11489;DHT22;5801;50.804;12.638;2023-06-22T13:08:51;30.60;99.90
11489;DHT22;5801;50.804;12.638;2023-06-22T13:11:17;30.10;99.90
11489;DHT22;5801;50.804;12.638;2023-06-22T13:13:44;30.40;99.90
11489;DHT22;5801;50.804;12.638;2023-06-22T13:16:09;30.60;99.90
11489;DHT22;5801;50.804;12.638;2023-06-22T13:18:35;30.60;99.90
11489;DHT22;5801;50.804;12.638;2023-06-22T13:21:04;30.40;99.90
11489;DHT22;5801;50.804;12.638;2023-06-22T13:23:30;30.50;99.90
11489;DHT22;5801;50.804;12.638;2023-06-22T13:25:56;30.10;99.90
11489;DHT22;5801;50.804;12.638;2023-06-22T13:28:21;30.10;99.90
11489;DHT22;5801;50.804;12.638;2023-06-22T13:30:47;30.30;99.90
11489;DHT22;5801;50.804;12.638;2023-06-22T13:33:16;29.90;99.90
11489;DHT22;5801;50.804;12.638;2023-06-22T13:35:42;29.70;99.90
11489;DHT22;5801;50.804;12.638;2023-06-22T13:38:08;29.90;99.90
11489;DHT22;5801;50.804;12.638;2023-06-22T13:40:34;30.20;99.90
11489;DHT22;5801;50.804;12.638;2023-06-22T13:43:00;30.30;99.90
11489;DHT22;5801;50.804;12.638;2023-06-22T13:45:26;30.00;99.90
11489;DHT22;5801;50.804;12.638;2023-06-22T13:47:51;30.20;99.90
11489;DHT22;5801;50.804;12.638;2023-06-22T13:50:17;30.10;99.90
11489;DHT22;5801;50.804;12.638;2023-06-22T13:52:42;30.20;99.90
11489;DHT22;5801;50.804;12.638;2023-06-22T13:55:08;30.20;99.90
11489;DHT22;5801;50.804;12.638;2023-06-22T13:57:35;30.10;99.90
11489;DHT22;5801;50.804;12.638;2023-06-22T14:00:01;30.00;99.90
11489;DHT22;5801;50.804;12.638;2023-06-22T14:02:27;30.10;99.90
11489;DHT22;5801;50.804;12.638;2023-06-22T14:04:53;30.00;99.90
11489;DHT22;5801;50.804;12.638;2023-06-22T14:07:19;29.80;99.90
11489;DHT22;5801;50.804;12.638;2023-06-22T14:09:47;30.00;99.90
11489;DHT22;5801;50.804;12.638;2023-06-22T14:12:13;29.90;99.90
11489;DHT22;5801;50.804;12.638;2023-06-22T14:14:38;30.30;99.90
11489;DHT22;5801;50.804;12.638;2023-06-22T14:17:05;30.50;99.90
11489;DHT22;5801;50.804;12.638;2023-06-22T14:19:31;30.40;99.90
11489;DHT22;5801;50.804;12.638;2023-06-22T14:21:56;30.50;99.90
11489;DHT22;5801;50.804;12.638;2023-06-22T14:24:23;30.50;99.90
11489;DHT22;5801;50.804;12.638;2023-06-22T14:26:48;30.40;99.90
11489;DHT22;5801;50.804;12.638;2023-06-22T14:29:14;30.40;99.90
11489;DHT22;5801;50.804;12.638;2023-06-22T14:31:40;30.80;99.90
11489;DHT22;5801;50.804;12.638;2023-06-22T14:34:05;30.30;99.90
11489;DHT22;5801;50.804;12.638;2023-06-22T14:36:31;30.20;99.90
11489;DHT22;5801;50.804;12.638;2023-06-22T14:38:57;30.20;99.90
11489;DHT22;5801;50.804;12.638;2023-06-22T14:41:22;30.00;99.90
11489;DHT22;5801;50.804;12.638;2023-06-22T14:43:49;29.90;99.90
11489;DHT22;5801;50.804;12.638;2023-06-22T14:46:17;30.10;99.90
11489;DHT22;5801;50.804;12.638;2023-06-22T14:48:43;30.30;99.90
11489;DHT22;5801;50.804;12.638;2023-06-22T14:51:09;30.80;99.90
11489;DHT22;5801;50.804;12.638;2023-06-22T14:53:35;30.50;99.90
11489;DHT22;5801;50.804;12.638;2023-06-22T14:56:01;30.40;99.90
11489;DHT22;5801;50.804;12.638;2023-06-22T14:58:31;30.30;99.90
11489;DHT22;5801;50.804;12.638;2023-06-22T15:00:59;30.40;99.90
11489;DHT22;5801;50.804;12.638;2023-06-22T15:03:24;30.30;99.90
11489;DHT22;5801;50.804;12.638;2023-06-22T15:05:53;30.40;99.90
11489;DHT22;5801;50.804;12.638;2023-06-22T15:08:19;30.30;99.90
11489;DHT22;5801;50.804;12.638;2023-06-22T15:10:44;30.20;99.90
11489;DHT22;5801;50.804;12.638;2023-06-22T15:13:10;30.30;99.90
11489;DHT22;5801;50.804;12.638;2023-06-22T15:15:36;30.50;99.90
11489;DHT22;5801;50.804;12.638;2023-06-22T15:18:01;30.30;99.90
11489;DHT22;5801;50.804;12.638;2023-06-22T15:20:27;30.30;99.90
11489;DHT22;5801;50.804;12.638;2023-06-22T15:22:52;30.30;99.90
11489;DHT22;5801;50.804;12.638;2023-06-22T15:25:18;30.10;99.90
11489;DHT22;5801;50.804;12.638;2023-06-22T15:27:43;30.00;99.90
11489;DHT22;5801;50.804;12.638;2023-06-22T15:30:09;29.90;99.90
11489;DHT22;5801;50.804;12.638;2023-06-22T15:32:35;29.90;99.90
11489;DHT22;5801;50.804;12.638;2023-06-22T15:35:00;29.90;99.90
11489;DHT22;5801;50.804;12.638;2023-06-22T15:37:26;29.90;99.90
11489;DHT22;5801;50.804;12.638;2023-06-22T15:39:52;30.00;99.90
11489;DHT22;5801;50.804;12.638;2023-06-22T15:42:17;30.10;99.90
11489;DHT22;5801;50.804;12.638;2023-06-22T15:44:43;30.20;99.90
11489;DHT22;5801;50.804;12.638;2023-06-22T15:47:08;30.20;99.90
11489;DHT22;5801;50.804;12.638;2023-06-22T15:49:34;30.20;99.90
11489;DHT22;5801;50.804;12.638;2023-06-22T15:51:59;30.00;99.90
11489;DHT22;5801;50.804;12.638;2023-06-22T15:54:25;30.00;99.90
11489;DHT22;5801;50.804;12.638;2023-06-22T15:56:50;30.10;99.90
11489;DHT22;5801;50.804;12.638;2023-06-22T15:59:16;30.10;99.90
11489;DHT22;5801;50.804;12.638;2023-06-22T16:01:41;30.10;99.90
11489;DHT22;5801;50.804;12.638;2023-06-22T16:04:07;30.20;99.90
11489;DHT22;5801;50.804;12.638;2023-06-22T16:06:33;30.20;99.90
11489;DHT22;5801;50.804;12.638;2023-06-22T16:08:59;30.30;99.90
11489;DHT22;5801;50.804;12.638;2023-06-22T16:11:24;30.30;99.90
11489;DHT22;5801;50.804;12.638;2023-06-22T16:13:50;30.30;99.90
11489;DHT22;5801;50.804;12.638;2023-06-22T16:16:15;30.10;99.90
11489;DHT22;5801;50.804;12.638;2023-06-22T16:18:42;30.00;99.90
11489;DHT22;5801;50.804;12.638;2023-06-22T16:21:07;29.70;99.90
11489;DHT22;5801;50.804;12.638;2023-06-22T16:23:33;29.70;99.90
11489;DHT22;5801;50.804;12.638;2023-06-22T16:25:59;29.70;99.90
11489;DHT22;5801;50.804;12.638;2023-06-22T16:28:24;29.70;99.90
11489;DHT22;5801;50.804;12.638;2023-06-22T16:30:50;29.70;99.90
11489;DHT22;5801;50.804;12.638;2023-06-22T16:33:15;29.70;99.90
11489;DHT22;5801;50.804;12.638;2023-06-22T16:35:41;29.70;99.90
11489;DHT22;5801;50.804;12.638;2023-06-22T16:38:06;29.60;99.90
11489;DHT22;5801;50.804;12.638;2023-06-22T16:40:32;29.60;99.90
11489;DHT22;5801;50.804;12.638;2023-06-22T16:42:58;29.70;99.90
11489;DHT22;5801;50.804;12.638;2023-06-22T16:45:24;29.60;99.90
11489;DHT22;5801;50.804;12.638;2023-06-22T16:47:50;29.60;99.90
11489;DHT22;5801;50.804;12.638;2023-06-22T16:50:17;29.60;99.90
11489;DHT22;5801;50.804;12.638;2023-06-22T16:52:42;29.60;99.90
11489;DHT22;5801;50.804;12.638;2023-06-22T16:55:10;29.60;99.90
11489;DHT22;5801;50.804;12.638;2023-06-22T16:57:36;29.60;99.90
11489;DHT22;5801;50.804;12.638;2023-06-22T17:00:03;29.60;99.90
11489;DHT22;5801;50.804;12.638;2023-06-22T17:02:37;29.50;99.90
11489;DHT22;5801;50.804;12.638;2023-06-22T17:05:04;29.40;99.90
11489;DHT22;5801;50.804;12.638;2023-06-22T17:07:33;29.30;99.90
11489;DHT22;5801;50.804;12.638;2023-06-22T17:09:59;29.20;99.90
11489;DHT22;5801;50.804;12.638;2023-06-22T17:12:25;29.20;99.90
11489;DHT22;5801;50.804;12.638;2023-06-22T17:14:51;29.10;99.90
11489;DHT22;5801;50.804;12.638;2023-06-22T17:17:18;29.10;99.90
11489;DHT22;5801;50.804;12.638;2023-06-22T17:19:44;29.00;99.90
11489;DHT22;5801;50.804;12.638;2023-06-22T17:22:10;29.00;99.90
11489;DHT22;5801;50.804;12.638;2023-06-22T17:24:36;28.80;99.90
11489;DHT22;5801;50.804;12.638;2023-06-22T17:27:02;28.70;99.90
11489;DHT22;5801;50.804;12.638;2023-06-22T17:29:29;28.60;99.90
11489;DHT22;5801;50.804;12.638;2023-06-22T17:31:59;28.50;99.90
11489;DHT22;5801;50.804;12.638;2023-06-22T17:34:28;28.40;99.90
11489;DHT22;5801;50.804;12.638;2023-06-22T17:36:55;28.40;99.90
11489;DHT22;5801;50.804;12.638;2023-06-22T17:39:23;28.30;99.90
11489;DHT22;5801;50.804;12.638;2023-06-22T17:41:50;28.30;99.90
11489;DHT22;5801;50.804;12.638;2023-06-22T17:44:23;28.30;99.90
11489;DHT22;5801;50.804;12.638;2023-06-22T17:46:56;28.20;99.90
11489;DHT22;5801;50.804;12.638;2023-06-22T17:49:30;28.20;99.90
11489;DHT22;5801;50.804;12.638;2023-06-22T17:51:57;28.10;99.90
11489;DHT22;5801;50.804;12.638;2023-06-22T17:54:23;28.10;99.90
11489;DHT22;5801;50.804;12.638;2023-06-22T17:56:49;28.00;99.90
11489;DHT22;5801;50.804;12.638;2023-06-22T17:59:17;27.90;99.90
11489;DHT22;5801;50.804;12.638;2023-06-22T18:01:43;27.90;99.90
11489;DHT22;5801;50.804;12.638;2023-06-22T18:04:17;27.80;99.90
11489;DHT22;5801;50.804;12.638;2023-06-22T18:06:45;27.80;99.90
11489;DHT22;5801;50.804;12.638;2023-06-22T18:09:13;27.70;99.90
11489;DHT22;5801;50.804;12.638;2023-06-22T18:11:47;27.70;99.90
11489;DHT22;5801;50.804;12.638;2023-06-22T18:14:18;27.80;99.90
11489;DHT22;5801;50.804;12.638;2023-06-22T18:16:50;27.70;99.90
11489;DHT22;5801;50.804;12.638;2023-06-22T18:19:17;27.70;99.90
11489;DHT22;5801;50.804;12.638;2023-06-22T18:21:47;27.70;99.90
11489;DHT22;5801;50.804;12.638;2023-06-22T18:24:15;27.60;99.90
11489;DHT22;5801;50.804;12.638;2023-06-22T18:26:43;27.50;99.90
11489;DHT22;5801;50.804;12.638;2023-06-22T18:29:09;27.50;99.90
11489;DHT22;5801;50.804;12.638;2023-06-22T18:31:36;27.50;99.90
11489;DHT22;5801;50.804;12.638;2023-06-22T18:34:01;27.50;99.90
11489;DHT22;5801;50.804;12.638;2023-06-22T18:36:42;27.50;99.90
11489;DHT22;5801;50.804;12.638;2023-06-22T18:39:09;27.40;99.90
11489;DHT22;5801;50.804;12.638;2023-06-22T18:41:39;27.40;99.90
11489;DHT22;5801;50.804;12.638;2023-06-22T18:44:22;27.40;99.90
11489;DHT22;5801;50.804;12.638;2023-06-22T18:46:50;27.40;99.90
11489;DHT22;5801;50.804;12.638;2023-06-22T18:49:23;27.30;99.90
11489;DHT22;5801;50.804;12.638;2023-06-22T18:51:50;27.30;99.90
11489;DHT22;5801;50.804;12.638;2023-06-22T18:54:21;27.30;99.90
11489;DHT22;5801;50.804;12.638;2023-06-22T18:56:54;26.00;99.90
11489;DHT22;5801;50.804;12.638;2023-06-22T19:02:33;27.10;99.90
11489;DHT22;5801;50.804;12.638;2023-06-22T19:05:41;27.00;99.90
11489;DHT22;5801;50.804;12.638;2023-06-22T19:08:08;27.00;99.90
11489;DHT22;5801;50.804;12.638;2023-06-22T19:15:38;26.90;99.90
11489;DHT22;5801;50.804;12.638;2023-06-22T19:18:18;26.90;99.90
11489;DHT22;5801;50.804;12.638;2023-06-22T19:21:02;26.90;99.90
11489;DHT22;5801;50.804;12.638;2023-06-22T19:25:54;26.80;99.90
11489;DHT22;5801;50.804;12.638;2023-06-22T19:28:28;26.80;99.90
11489;DHT22;5801;50.804;12.638;2023-06-22T19:30:55;26.80;99.90
11489;DHT22;5801;50.804;12.638;2023-06-22T19:33:22;26.70;99.90
11489;DHT22;5801;50.804;12.638;2023-06-22T19:35:48;26.70;99.90
11489;DHT22;5801;50.804;12.638;2023-06-22T19:38:17;26.70;99.90
11489;DHT22;5801;50.804;12.638;2023-06-22T19:40:44;26.60;99.90
11489;DHT22;5801;50.804;12.638;2023-06-22T19:43:15;26.70;99.90
11489;DHT22;5801;50.804;12.638;2023-06-22T19:45:42;26.70;99.90
11489;DHT22;5801;50.804;12.638;2023-06-22T19:48:09;26.50;99.90
11489;DHT22;5801;50.804;12.638;2023-06-22T19:50:34;26.50;99.90
11489;DHT22;5801;50.804;12.638;2023-06-22T19:53:07;26.50;99.90
11489;DHT22;5801;50.804;12.638;2023-06-22T19:55:33;26.50;99.90
11489;DHT22;5801;50.804;12.638;2023-06-22T19:58:01;26.40;99.90
11489;DHT22;5801;50.804;12.638;2023-06-22T20:00:26;26.50;99.90
11489;DHT22;5801;50.804;12.638;2023-06-22T20:02:53;26.50;99.90
11489;DHT22;5801;50.804;12.638;2023-06-22T20:05:20;26.50;99.90
11489;DHT22;5801;50.804;12.638;2023-06-22T20:07:46;26.50;99.90
11489;DHT22;5801;50.804;12.638;2023-06-22T20:10:17;26.50;99.90
11489;DHT22;5801;50.804;12.638;2023-06-22T20:12:51;26.50;99.90
11489;DHT22;5801;50.804;12.638;2023-06-22T20:15:26;26.50;99.90
11489;DHT22;5801;50.804;12.638;2023-06-22T20:17:56;26.70;99.90
11489;DHT22;5801;50.804;12.638;2023-06-22T20:20:25;26.60;99.90
11489;DHT22;5801;50.804;12.638;2023-06-22T20:22:54;26.50;99.90
11489;DHT22;5801;50.804;12.638;2023-06-22T20:25:24;26.60;99.90
11489;DHT22;5801;50.804;12.638;2023-06-22T20:27:50;26.60;99.90
11489;DHT22;5801;50.804;12.638;2023-06-22T20:30:18;26.60;99.90
11489;DHT22;5801;50.804;12.638;2023-06-22T20:32:51;26.60;99.90
11489;DHT22;5801;50.804;12.638;2023-06-22T20:35:19;26.60;99.90
11489;DHT22;5801;50.804;12.638;2023-06-22T20:37:45;26.50;99.90
11489;DHT22;5801;50.804;12.638;2023-06-22T20:40:11;26.20;99.90
11489;DHT22;5801;50.804;12.638;2023-06-22T20:42:37;26.00;99.90
11489;DHT22;5801;50.804;12.638;2023-06-22T20:45:04;25.90;99.90
11489;DHT22;5801;50.804;12.638;2023-06-22T20:54:50;25.70;99.90
11489;DHT22;5801;50.804;12.638;2023-06-22T20:57:18;24.10;99.90
11489;DHT22;5801;50.804;12.638;2023-06-22T20:59:43;23.70;99.90
11489;DHT22;5801;50.804;12.638;2023-06-22T21:02:09;22.50;99.90
11489;DHT22;5801;50.804;12.638;2023-06-22T21:14:18;21.90;1.00
11489;DHT22;5801;50.804;12.638;2023-06-22T21:19:10;22.30;1.00
11489;DHT22;5801;50.804;12.638;2023-06-22T21:24:03;21.90;1.00
11489;DHT22;5801;50.804;12.638;2023-06-22T21:33:46;22.20;1.00
